createdAt,value
2023-04-21T00:00:55.994Z,101489.09
2023-04-21T00:03:24.129Z,101484.38
2023-04-21T00:05:51.248Z,101485.84
2023-04-21T00:08:18.743Z,101481.75
2023-04-21T00:10:46.630Z,101479.59
2023-04-21T00:13:13.487Z,101479.69
2023-04-21T00:15:40.026Z,101482.56
2023-04-21T00:18:06.553Z,101470.06
2023-04-21T00:20:33.133Z,101477.19
2023-04-21T00:23:00.544Z,101481.88
2023-04-21T00:25:27.139Z,101471.41
2023-04-21T00:27:53.602Z,101475.63
2023-04-21T00:30:20.098Z,101477.91
2023-04-21T00:32:46.607Z,101476.38
2023-04-21T00:35:13.151Z,101484.25
2023-04-21T00:37:40.760Z,101474.28
2023-04-21T00:40:08.534Z,101479.66
2023-04-21T00:42:34.996Z,101477.78
2023-04-21T00:45:01.646Z,101470.66
2023-04-21T00:47:28.141Z,101475.09
2023-04-21T00:49:54.942Z,101473.59
2023-04-21T00:52:21.706Z,101473.25
2023-04-21T00:54:48.315Z,101473.84
2023-04-21T00:57:14.866Z,101467.31
2023-04-21T00:59:41.894Z,101468.09
2023-04-21T01:02:08.391Z,101463.88
2023-04-21T01:04:39.567Z,101468.19
2023-04-21T01:07:07.731Z,101464.06
2023-04-21T01:09:34.613Z,101459.19
2023-04-21T01:12:05.733Z,101460.63
2023-04-21T01:14:32.214Z,101462.78
2023-04-21T01:16:59.234Z,101461.75
2023-04-21T01:19:28.588Z,101466.09
2023-04-21T01:21:57.586Z,101467.81
2023-04-21T01:24:27.316Z,101462.44
2023-04-21T01:26:53.750Z,101464.34
2023-04-21T01:29:20.389Z,101456.41
2023-04-21T01:31:48.176Z,101449.38
2023-04-21T01:34:14.711Z,101453.38
2023-04-21T01:36:41.218Z,101461.59
2023-04-21T01:39:07.700Z,101462.56
2023-04-21T01:41:34.234Z,101458.34
2023-04-21T01:44:01.055Z,101456.59
2023-04-21T01:46:27.951Z,101465.66
2023-04-21T01:48:54.612Z,101456.53
2023-04-21T01:51:21.201Z,101459.44
2023-04-21T01:53:47.591Z,101448.69
2023-04-21T01:56:15.372Z,101443.28
2023-04-21T01:58:41.769Z,101443.34
2023-04-21T02:01:08.233Z,101445.94
2023-04-21T02:03:35.103Z,101438.97
2023-04-21T02:06:01.605Z,101440.81
2023-04-21T02:08:28.021Z,101435.28
2023-04-21T02:10:54.446Z,101426.66
2023-04-21T02:13:20.850Z,101433.91
2023-04-21T02:15:47.273Z,101436.84
2023-04-21T02:18:14.890Z,101438.13
2023-04-21T02:20:41.409Z,101432.19
2023-04-21T02:23:07.807Z,101424.44
2023-04-21T02:25:34.259Z,101431.19
2023-04-21T02:28:00.677Z,101428.75
2023-04-21T02:30:27.600Z,101425.00
2023-04-21T02:32:54.278Z,101424.03
2023-04-21T02:35:20.907Z,101435.94
2023-04-21T02:37:47.311Z,101428.41
2023-04-21T02:40:13.889Z,101435.81
2023-04-21T02:42:40.344Z,101430.63
2023-04-21T02:45:07.423Z,101432.47
2023-04-21T02:47:33.881Z,101428.22
2023-04-21T02:50:00.564Z,101430.66
2023-04-21T02:52:27.858Z,101428.69
2023-04-21T02:54:54.296Z,101428.47
2023-04-21T02:57:20.727Z,101426.97
2023-04-21T02:59:47.188Z,101436.75
2023-04-21T03:02:13.744Z,101430.03
2023-04-21T03:04:40.310Z,101433.66
2023-04-21T03:07:12.659Z,101419.72
2023-04-21T03:09:39.755Z,101428.44
2023-04-21T03:12:06.444Z,101427.13
2023-04-21T03:14:32.933Z,101424.94
2023-04-21T03:16:59.578Z,101423.53
2023-04-21T03:19:26.077Z,101425.03
2023-04-21T03:21:52.464Z,101416.63
2023-04-21T03:24:19.464Z,101416.31
2023-04-21T03:26:45.881Z,101424.63
2023-04-21T03:29:12.257Z,101423.97
2023-04-21T03:31:38.709Z,101428.16
2023-04-21T03:34:05.207Z,101423.66
2023-04-21T03:36:31.833Z,101423.59
2023-04-21T03:39:05.899Z,101428.78
2023-04-21T03:41:39.494Z,101426.72
2023-04-21T03:44:05.929Z,101426.78
2023-04-21T03:46:32.404Z,101432.06
2023-04-21T03:48:58.915Z,101423.75
2023-04-21T03:51:25.361Z,101422.00
2023-04-21T03:53:51.753Z,101428.75
2023-04-21T03:56:18.187Z,101428.09
2023-04-21T03:58:44.687Z,101424.91
2023-04-21T04:01:11.090Z,101436.78
2023-04-21T04:03:37.701Z,101436.78
2023-04-21T04:06:04.474Z,101431.81
2023-04-21T04:08:31.373Z,101431.81
2023-04-21T04:10:57.858Z,101426.47
2023-04-21T04:13:26.317Z,101426.91
2023-04-21T04:15:53.112Z,101430.22
2023-04-21T04:18:19.624Z,101437.09
2023-04-21T04:20:46.054Z,101435.19
2023-04-21T04:23:12.445Z,101437.19
2023-04-21T04:25:39.167Z,101427.84
2023-04-21T04:28:07.317Z,101431.72
2023-04-21T04:30:35.188Z,101437.84
2023-04-21T04:33:02.028Z,101433.03
2023-04-21T04:35:28.494Z,101435.22
2023-04-21T04:37:56.836Z,101437.19
2023-04-21T04:40:23.493Z,101432.22
2023-04-21T04:42:49.957Z,101440.03
2023-04-21T04:45:16.617Z,101436.97
2023-04-21T04:47:43.595Z,101441.78
2023-04-21T04:50:10.232Z,101441.44
2023-04-21T04:52:36.682Z,101444.38
2023-04-21T04:55:04.079Z,101438.44
2023-04-21T04:57:31.073Z,101443.38
2023-04-21T04:59:57.687Z,101450.47
2023-04-21T05:02:24.669Z,101450.75
2023-04-21T05:04:51.454Z,101439.22
2023-04-21T05:07:17.941Z,101442.09
2023-04-21T05:09:44.364Z,101456.53
2023-04-21T05:12:11.233Z,101445.50
2023-04-21T05:14:37.618Z,101455.94
2023-04-21T05:17:04.134Z,101460.50
2023-04-21T05:19:30.756Z,101450.97
2023-04-21T05:22:03.124Z,101462.97
2023-04-21T05:24:29.630Z,101461.66
2023-04-21T05:26:56.131Z,101459.97
2023-04-21T05:29:22.552Z,101457.38
2023-04-21T05:31:48.981Z,101461.38
2023-04-21T05:34:15.456Z,101455.69
2023-04-21T05:36:42.728Z,101463.78
2023-04-21T05:39:09.447Z,101469.75
2023-04-21T05:41:36.221Z,101460.31
2023-04-21T05:44:02.713Z,101452.69
2023-04-21T05:46:30.208Z,101464.28
2023-04-21T05:48:56.738Z,101457.56
2023-04-21T05:51:23.107Z,101457.44
2023-04-21T05:53:49.504Z,101462.53
2023-04-21T05:56:16.015Z,101451.53
2023-04-21T05:58:42.402Z,101455.41
2023-04-21T06:01:08.923Z,101467.13
2023-04-21T06:03:35.963Z,101468.25
2023-04-21T06:06:04.563Z,101477.38
2023-04-21T06:08:31.290Z,101465.31
2023-04-21T06:10:58.075Z,101469.75
2023-04-21T06:13:24.776Z,101463.03
2023-04-21T06:15:51.170Z,101475.16
2023-04-21T06:18:17.647Z,101469.16
2023-04-21T06:20:50.894Z,101469.59
2023-04-21T06:23:17.540Z,101471.78
2023-04-21T06:25:43.946Z,101474.09
2023-04-21T06:28:10.495Z,101471.56
2023-04-21T06:30:36.941Z,101462.50
2023-04-21T06:33:04.460Z,101463.66
2023-04-21T06:35:31.008Z,101461.72
2023-04-21T06:37:57.407Z,101457.94
2023-04-21T06:40:23.830Z,101462.34
2023-04-21T06:42:50.236Z,101474.22
2023-04-21T06:45:16.670Z,101464.41
2023-04-21T06:47:43.074Z,101458.78
2023-04-21T06:50:10.001Z,101466.00
2023-04-21T06:52:36.460Z,101474.75
2023-04-21T06:55:02.964Z,101469.25
2023-04-21T06:57:29.392Z,101471.09
2023-04-21T06:59:55.829Z,101460.16
2023-04-21T07:02:22.300Z,101472.81
2023-04-21T07:04:48.822Z,101468.53
2023-04-21T07:07:15.558Z,101474.81
2023-04-21T07:09:42.057Z,101465.91
2023-04-21T07:12:08.520Z,101470.13
2023-04-21T07:14:34.979Z,101475.50
2023-04-21T07:17:01.418Z,101476.97
2023-04-21T07:19:28.260Z,101481.38
2023-04-21T07:21:54.688Z,101474.00
2023-04-21T07:24:21.198Z,101473.72
2023-04-21T07:26:47.637Z,101487.19
2023-04-21T07:29:14.065Z,101479.72
2023-04-21T07:31:40.662Z,101484.44
2023-04-21T07:34:07.339Z,101479.66
2023-04-21T07:36:33.863Z,101486.19
2023-04-21T07:39:00.610Z,101468.09
2023-04-21T07:41:29.221Z,101483.16
2023-04-21T07:43:55.704Z,101491.78
2023-04-21T07:46:24.271Z,101484.97
2023-04-21T07:48:50.833Z,101482.56
2023-04-21T07:51:17.958Z,101491.13
2023-04-21T07:53:44.498Z,101491.56
2023-04-21T07:56:12.943Z,101478.81
2023-04-21T07:58:39.439Z,101492.94
2023-04-21T08:01:05.919Z,101490.41
2023-04-21T08:03:32.586Z,101483.56
2023-04-21T08:05:59.394Z,101491.69
2023-04-21T08:08:26.161Z,101487.53
2023-04-21T08:10:53.442Z,101490.41
2023-04-21T08:13:21.519Z,101479.31
2023-04-21T08:15:47.938Z,101485.31
2023-04-21T08:18:17.441Z,101484.44
2023-04-21T08:20:47.819Z,101485.81
2023-04-21T08:23:15.389Z,101481.19
2023-04-21T08:25:41.982Z,101488.09
2023-04-21T08:28:08.458Z,101486.91
2023-04-21T08:30:34.887Z,101485.44
2023-04-21T08:33:01.309Z,101471.56
2023-04-21T08:35:27.847Z,101484.78
2023-04-21T08:37:54.271Z,101490.22
2023-04-21T08:40:20.710Z,101480.56
2023-04-21T08:42:48.475Z,101476.63
2023-04-21T08:45:15.091Z,101484.25
2023-04-21T08:47:42.073Z,101476.41
2023-04-21T08:50:13.229Z,101472.00
2023-04-21T08:52:39.628Z,101469.66
2023-04-21T08:55:07.477Z,101469.38
2023-04-21T08:57:34.255Z,101466.94
2023-04-21T09:00:01.031Z,101460.97
2023-04-21T09:02:27.627Z,101467.31
2023-04-21T09:04:55.824Z,101460.88
2023-04-21T09:07:37.169Z,101480.69
2023-04-21T09:10:05.180Z,101464.53
2023-04-21T09:12:32.021Z,101468.72
2023-04-21T09:14:58.637Z,101475.09
2023-04-21T09:17:33.941Z,101467.09
2023-04-21T09:20:14.201Z,101479.72
2023-04-21T09:22:40.758Z,101466.97
2023-04-21T09:25:07.531Z,101473.75
2023-04-21T09:27:37.516Z,101461.28
2023-04-21T09:30:07.165Z,101473.28
2023-04-21T09:32:38.980Z,101491.16
2023-04-21T09:35:09.453Z,101490.66
2023-04-21T09:37:36.026Z,101492.41
2023-04-21T09:40:04.709Z,101491.41
2023-04-21T09:42:38.124Z,101488.16
2023-04-21T09:47:42.532Z,101490.19
2023-04-21T09:50:13.290Z,101488.56
2023-04-21T09:52:42.859Z,101479.75
2023-04-21T09:55:13.062Z,101480.75
2023-04-21T09:57:42.167Z,101461.34
2023-04-21T10:00:12.107Z,101465.47
2023-04-21T10:02:44.224Z,101471.50
2023-04-21T10:05:11.988Z,101479.53
2023-04-21T10:07:38.713Z,101473.66
2023-04-21T10:10:09.066Z,101466.91
2023-04-21T10:12:35.568Z,101473.25
2023-04-21T10:15:05.295Z,101471.94
2023-04-21T10:17:36.884Z,101479.50
2023-04-21T10:20:06.776Z,101468.78
2023-04-21T10:22:34.770Z,101470.50
2023-04-21T10:25:03.346Z,101466.09
2023-04-21T10:27:36.846Z,101458.06
2023-04-21T10:30:32.740Z,101456.13
2023-04-21T10:33:03.785Z,101456.88
2023-04-21T10:35:53.680Z,101444.09
2023-04-21T10:38:42.763Z,101452.31
2023-04-21T10:41:29.281Z,101446.03
2023-04-21T10:43:59.763Z,101429.28
2023-04-21T10:46:34.095Z,101432.69
2023-04-21T10:49:12.173Z,101438.47
2023-04-21T10:52:00.684Z,101432.00
2023-04-21T10:54:31.476Z,101431.63
2023-04-21T10:56:59.239Z,101435.94
2023-04-21T10:59:27.072Z,101426.38
2023-04-21T11:01:54.578Z,101420.72
2023-04-21T11:04:58.221Z,101416.66
2023-04-21T11:07:25.591Z,101402.25
2023-04-21T11:10:02.036Z,101415.13
2023-04-21T11:12:33.974Z,101399.22
2023-04-21T11:15:05.020Z,101399.78
2023-04-21T11:17:31.861Z,101385.53
2023-04-21T11:19:58.486Z,101395.81
2023-04-21T11:22:26.388Z,101398.94
2023-04-21T11:24:57.792Z,101398.38
2023-04-21T11:27:27.060Z,101397.34
2023-04-21T11:29:53.588Z,101394.66
2023-04-21T11:32:21.219Z,101385.56
2023-04-21T11:34:47.888Z,101395.94
2023-04-21T11:37:17.189Z,101393.63
2023-04-21T11:39:44.387Z,101384.88
2023-04-21T11:42:11.858Z,101386.13
2023-04-21T11:44:38.282Z,101370.59
2023-04-21T11:47:25.248Z,101371.81
2023-04-21T11:49:54.635Z,101372.59
2023-04-21T11:52:21.798Z,101374.59
2023-04-21T11:54:48.718Z,101361.88
2023-04-21T11:57:18.660Z,101367.47
2023-04-21T11:59:46.869Z,101372.22
2023-04-21T12:02:21.578Z,101377.00
2023-04-21T12:04:57.774Z,101361.06
2023-04-21T12:07:24.543Z,101362.66
2023-04-21T12:09:53.740Z,101353.94
2023-04-21T12:12:22.974Z,101360.69
2023-04-21T12:14:51.580Z,101358.28
2023-04-21T12:17:18.152Z,101347.97
2023-04-21T12:19:44.697Z,101353.13
2023-04-21T12:22:13.172Z,101354.72
2023-04-21T12:24:40.451Z,101344.38
2023-04-21T12:27:07.811Z,101343.94
2023-04-21T12:29:38.437Z,101350.31
2023-04-21T13:02:45.315Z,101294.25
2023-04-21T13:05:12.757Z,101309.84
2023-04-21T13:07:39.417Z,101311.81
2023-04-21T13:10:06.742Z,101312.59
2023-04-21T13:12:33.439Z,101308.63
2023-04-21T13:14:59.927Z,101303.06
2023-04-21T13:17:26.437Z,101318.53
2023-04-21T13:19:52.920Z,101306.19
2023-04-21T13:22:19.388Z,101300.25
2023-04-21T13:24:45.857Z,101322.84
2023-04-21T13:27:12.412Z,101300.94
2023-04-21T13:29:38.937Z,101300.94
2023-04-21T13:32:07.408Z,101288.25
2023-04-21T13:34:34.312Z,101289.75
2023-04-21T13:37:01.520Z,101281.06
2023-04-21T13:39:28.026Z,101274.00
2023-04-21T13:41:54.685Z,101269.66
2023-04-21T13:44:21.576Z,101268.47
2023-04-21T13:46:48.144Z,101257.00
2023-04-21T13:49:14.730Z,101263.34
2023-04-21T13:51:41.221Z,101268.47
2023-04-21T13:54:07.695Z,101265.72
2023-04-21T13:56:34.750Z,101242.66
2023-04-21T13:59:01.208Z,101251.03
2023-04-21T14:01:27.806Z,101244.63
2023-04-21T14:04:21.024Z,101234.31
2023-04-21T14:06:50.988Z,101242.66
2023-04-21T14:09:17.738Z,101226.44
2023-04-21T14:11:44.291Z,101225.63
2023-04-21T14:14:10.791Z,101216.91
2023-04-21T14:16:38.376Z,101218.84
2023-04-21T14:19:05.279Z,101201.78
2023-04-21T14:21:32.692Z,101216.13
2023-04-21T14:23:59.312Z,101201.44
2023-04-21T14:26:25.994Z,101199.84
2023-04-21T14:28:52.489Z,101187.91
2023-04-21T14:31:21.658Z,101193.88
2023-04-21T14:33:48.552Z,101188.72
2023-04-21T14:36:15.032Z,101187.91
2023-04-21T14:38:42.686Z,101183.56
2023-04-21T14:41:09.436Z,101176.78
2023-04-21T14:43:36.472Z,101164.91
2023-04-21T14:48:29.805Z,101165.28
2023-04-21T14:50:59.161Z,101170.47
2023-04-21T14:53:25.932Z,101160.53
2023-04-21T14:55:53.041Z,101166.47
2023-04-21T14:58:21.144Z,101166.88
2023-04-21T15:00:47.783Z,101152.97
2023-04-21T15:03:14.586Z,101160.94
2023-04-21T15:05:41.201Z,101146.22
2023-04-21T15:08:08.833Z,101152.16
2023-04-21T15:10:35.682Z,101149.72
2023-04-21T15:13:02.232Z,101148.13
2023-04-21T15:15:28.773Z,101137.81
2023-04-21T15:17:55.579Z,101136.97
2023-04-21T15:20:32.541Z,101133.06
2023-04-21T15:23:03.336Z,101135.78
2023-04-21T15:25:30.271Z,101137.78
2023-04-21T15:27:56.701Z,101133.03
2023-04-21T15:30:23.117Z,101133.03
2023-04-21T15:32:49.602Z,101133.81
2023-04-21T15:35:16.120Z,101121.16
2023-04-21T15:37:42.514Z,101124.28
2023-04-21T15:40:09.754Z,101117.16
2023-04-21T15:42:36.273Z,101116.38
2023-04-21T15:45:03.987Z,101107.72
2023-04-21T15:47:30.473Z,101114.47
2023-04-21T15:49:56.931Z,101109.31
2023-04-21T15:52:23.454Z,101109.28
2023-04-21T15:54:50.495Z,101102.56
2023-04-21T15:57:17.024Z,101102.16
2023-04-21T15:59:43.588Z,101103.38
2023-04-21T16:02:10.150Z,101097.81
2023-04-21T16:07:03.805Z,101093.84
2023-04-21T16:09:30.394Z,101083.16
2023-04-21T16:11:57.286Z,101094.63
2023-04-21T16:14:23.987Z,101085.16
2023-04-21T16:16:50.713Z,101075.25
2023-04-21T16:19:17.289Z,101081.97
2023-04-21T16:21:43.771Z,101090.28
2023-04-21T16:24:10.872Z,101080.38
2023-04-21T16:26:37.365Z,101085.53
2023-04-21T16:29:03.864Z,101083.16
2023-04-21T16:31:31.333Z,101073.25
2023-04-21T16:34:00.811Z,101063.31
2023-04-21T16:36:28.473Z,101060.16
2023-04-21T16:38:55.933Z,101060.19
2023-04-21T16:41:22.483Z,101062.94
2023-04-21T16:43:49.351Z,101075.25
2023-04-21T16:46:16.120Z,101072.06
2023-04-21T16:48:42.741Z,101054.22
2023-04-21T16:51:09.256Z,101058.19
2023-04-21T16:53:36.835Z,101062.94
2023-04-21T16:56:04.671Z,101056.16
2023-04-21T16:58:31.236Z,101050.59
2023-04-21T17:00:57.828Z,101049.03
2023-04-21T17:03:26.280Z,101050.22
2023-04-21T17:05:53.702Z,101055.78
2023-04-21T17:08:20.617Z,101057.00
2023-04-21T17:10:47.005Z,101052.22
2023-04-21T17:13:13.519Z,101049.06
2023-04-21T17:15:40.862Z,101060.94
2023-04-21T17:18:07.550Z,101053.00
2023-04-21T17:20:34.937Z,101039.16
2023-04-21T17:23:01.404Z,101046.28
2023-04-21T17:25:28.097Z,101035.59
2023-04-21T17:27:54.657Z,101039.91
2023-04-21T17:30:23.371Z,101035.56
2023-04-21T17:32:53.310Z,101043.47
2023-04-21T17:35:27.272Z,101029.59
2023-04-21T17:37:53.891Z,101039.13
2023-04-21T17:40:20.822Z,101028.00
2023-04-21T17:42:47.253Z,101034.75
2023-04-21T17:45:13.680Z,101027.59
2023-04-21T17:47:40.408Z,101024.81
2023-04-21T17:50:09.778Z,101029.19
2023-04-21T17:52:36.164Z,101020.47
2023-04-21T17:55:02.667Z,101031.56
2023-04-21T17:57:29.396Z,101024.03
2023-04-21T17:59:56.193Z,101024.38
2023-04-21T18:02:22.882Z,101018.03
2023-04-21T18:04:49.552Z,101025.91
2023-04-21T18:07:16.129Z,101025.50
2023-04-21T18:09:43.338Z,101015.97
2023-04-21T18:12:09.843Z,101024.28
2023-04-21T18:14:36.823Z,101023.44
2023-04-21T18:17:03.583Z,101019.44
2023-04-21T18:19:30.264Z,101015.44
2023-04-21T18:21:57.102Z,101024.94
2023-04-21T18:24:23.697Z,101015.00
2023-04-21T18:26:51.354Z,101018.91
2023-04-21T18:29:19.414Z,101011.31
2023-04-21T18:31:45.985Z,101010.41
2023-04-21T18:34:14.418Z,101019.84
2023-04-21T18:36:42.911Z,101019.75
2023-04-21T18:39:13.199Z,101007.72
2023-04-21T18:41:40.403Z,101018.03
2023-04-21T18:44:06.903Z,101012.03
2023-04-21T18:46:33.802Z,101009.91
2023-04-21T18:49:00.558Z,101007.97
2023-04-21T18:51:31.305Z,101004.69
2023-04-21T18:53:57.857Z,101005.38
2023-04-21T18:56:24.336Z,101001.84
2023-04-21T18:58:51.016Z,100997.78
2023-04-21T19:01:17.546Z,100995.69
2023-04-21T19:07:31.534Z,100990.91
2023-04-21T19:09:58.202Z,100989.25
2023-04-21T19:12:24.692Z,100988.69
2023-04-21T19:14:51.904Z,100996.28
2023-04-21T19:17:18.513Z,100992.84
2023-04-21T19:19:44.993Z,100983.69
2023-04-21T19:22:11.438Z,100990.31
2023-04-21T19:24:38.213Z,100994.34
2023-04-21T19:27:06.156Z,100986.97
2023-04-21T19:29:33.044Z,100990.06
2023-04-21T19:31:59.498Z,100983.38
2023-04-21T19:34:26.715Z,100988.69
2023-04-21T19:36:53.665Z,100976.00
2023-04-21T19:39:20.200Z,100966.19
2023-04-21T19:41:46.696Z,100977.28
2023-04-21T19:44:13.139Z,100974.56
2023-04-21T19:46:42.525Z,100974.13
2023-04-21T19:49:12.914Z,100974.91
2023-04-21T19:51:40.935Z,100962.16
2023-04-21T19:54:11.355Z,100966.63
2023-04-21T19:56:39.571Z,100965.97
2023-04-21T19:59:06.246Z,100971.84
2023-04-21T20:01:36.023Z,100973.03
2023-04-21T20:04:03.564Z,100972.22
2023-04-21T20:06:30.469Z,100967.75
2023-04-21T20:08:56.992Z,100963.75
2023-04-21T20:11:23.646Z,100968.53
2023-04-21T20:13:50.571Z,100961.56
2023-04-21T20:16:20.061Z,100959.25
2023-04-21T20:18:47.010Z,100962.75
2023-04-21T20:21:14.266Z,100980.56
2023-04-21T20:23:40.881Z,100974.88
2023-04-21T20:26:07.287Z,100960.69
2023-04-21T20:28:33.772Z,100969.63
2023-04-21T20:31:00.653Z,100967.56
2023-04-21T20:33:28.078Z,100966.06
2023-04-21T20:35:55.155Z,100973.16
2023-04-21T20:38:23.835Z,100975.97
2023-04-21T20:40:52.201Z,100983.41
2023-04-21T20:43:18.883Z,100975.88
2023-04-21T20:45:46.965Z,100974.88
2023-04-21T20:48:13.611Z,100975.47
2023-04-21T20:50:40.045Z,100977.00
2023-04-21T20:53:08.415Z,100976.88
2023-04-21T20:55:35.429Z,100974.22
2023-04-21T20:58:02.737Z,100981.81
2023-04-21T21:00:31.455Z,100986.19
2023-04-21T21:02:58.186Z,100976.00
2023-04-21T21:05:24.802Z,100971.59
2023-04-21T21:07:51.283Z,100979.56
2023-04-21T21:10:18.512Z,100975.38
2023-04-21T21:12:45.158Z,100972.06
2023-04-21T21:15:11.820Z,100973.09
2023-04-21T21:17:38.317Z,100967.56
2023-04-21T21:20:05.842Z,100962.66
2023-04-21T21:22:32.273Z,100969.25
2023-04-21T21:24:58.769Z,100970.22
2023-04-21T21:27:25.316Z,100970.50
2023-04-21T21:29:51.800Z,100967.41
2023-04-21T21:32:18.524Z,100967.88
2023-04-21T21:34:45.558Z,100967.53
2023-04-21T21:37:11.965Z,100967.84
2023-04-21T21:39:38.788Z,100970.22
2023-04-21T21:42:05.550Z,100969.13
2023-04-21T21:44:32.111Z,100978.41
2023-04-21T21:46:58.738Z,100975.38
2023-04-21T21:49:25.234Z,100970.13
2023-04-21T21:51:52.878Z,100969.66
2023-04-21T21:54:19.397Z,100967.56
2023-04-21T21:56:46.269Z,100970.47
2023-04-21T21:59:12.763Z,100961.88
2023-04-21T22:01:39.336Z,100962.50
2023-04-21T22:04:06.277Z,100962.66
2023-04-21T22:06:34.660Z,100958.00
2023-04-21T22:09:01.200Z,100959.22
2023-04-21T22:11:27.745Z,100960.84
2023-04-21T22:13:54.155Z,100958.94
2023-04-21T22:16:20.636Z,100965.63
2023-04-21T22:18:48.186Z,100967.91
2023-04-21T22:21:15.161Z,100971.13
2023-04-21T22:23:41.689Z,100957.66
2023-04-21T22:26:09.228Z,100962.25
2023-04-21T22:28:35.836Z,100955.88
2023-04-21T22:31:02.391Z,100956.78
2023-04-21T22:33:28.989Z,100967.34
2023-04-21T22:35:55.603Z,100959.84
2023-04-21T22:38:22.118Z,100958.22
2023-04-21T22:40:48.555Z,100960.69
2023-04-21T22:43:14.977Z,100970.34
2023-04-21T22:45:42.918Z,100969.06
2023-04-21T22:48:09.471Z,100957.84
2023-04-21T22:50:35.998Z,100966.19
2023-04-21T22:53:02.468Z,100964.56
2023-04-21T22:55:29.026Z,100966.19
2023-04-21T22:57:55.532Z,100965.28
2023-04-21T23:00:21.960Z,100967.41
2023-04-21T23:02:48.562Z,100969.44
2023-04-21T23:05:15.690Z,100958.00
2023-04-21T23:07:42.146Z,100968.88
2023-04-21T23:10:08.853Z,100959.13
2023-04-21T23:12:35.582Z,100956.03
2023-04-21T23:15:02.065Z,100960.00
2023-04-21T23:17:28.517Z,100962.88
2023-04-21T23:19:55.199Z,100966.66
2023-04-21T23:22:24.144Z,100962.91
2023-04-21T23:24:51.864Z,100966.13
2023-04-21T23:27:18.377Z,100968.63
2023-04-21T23:29:44.856Z,100960.75
2023-04-21T23:32:11.313Z,100961.38
2023-04-21T23:34:37.777Z,100963.97
2023-04-21T23:37:04.272Z,100969.34
2023-04-21T23:39:30.790Z,100972.41
2023-04-21T23:41:57.378Z,100964.00
2023-04-21T23:44:24.028Z,100966.38
2023-04-21T23:46:51.154Z,100960.53
2023-04-21T23:49:17.554Z,100959.84
2023-04-21T23:51:44.050Z,100955.88
2023-04-21T23:54:10.485Z,100951.44
2023-04-21T23:56:36.978Z,100941.94
2023-04-21T23:59:03.391Z,100945.34
